createdAt,value
2022-09-06T00:00:30.814Z,101786.78
2022-09-06T00:02:59.298Z,101784.16
2022-09-06T00:05:27.386Z,101781.59
2022-09-06T00:07:55.578Z,101790.34
2022-09-06T00:10:23.377Z,101786.34
2022-09-06T00:12:51.241Z,101788.19
2022-09-06T00:15:19.665Z,101789.06
2022-09-06T00:17:49.427Z,101777.75
2022-09-06T00:20:17.648Z,101787.13
2022-09-06T00:22:45.473Z,101790.63
2022-09-06T00:25:13.297Z,101787.31
2022-09-06T00:27:41.098Z,101776.06
2022-09-06T00:30:11.277Z,101771.72
2022-09-06T00:32:39.080Z,101781.31
2022-09-06T00:35:08.663Z,101784.84
2022-09-06T00:37:36.471Z,101783.91
2022-09-06T00:40:04.994Z,101783.91
2022-09-06T00:42:32.938Z,101781.38
2022-09-06T00:45:01.480Z,101777.06
2022-09-06T00:47:30.695Z,101790.06
2022-09-06T00:50:01.201Z,101792.59
2022-09-06T00:52:33.081Z,101785.66
2022-09-06T00:55:01.283Z,101785.72
2022-09-06T00:57:32.132Z,101790.91
2022-09-06T01:00:03.200Z,101793.59
2022-09-06T01:02:31.440Z,101798.78
2022-09-06T01:04:59.857Z,101797.09
2022-09-06T01:07:48.236Z,101790.03
2022-09-06T01:10:54.977Z,101783.94
2022-09-06T01:13:37.869Z,101779.72
2022-09-06T01:16:17.449Z,101784.91
2022-09-06T01:19:15.772Z,101781.47
2022-09-06T01:21:56.484Z,101791.00
2022-09-06T01:25:05.152Z,101782.31
2022-09-06T01:28:03.755Z,101777.13
2022-09-06T01:30:39.066Z,101784.06
2022-09-06T01:33:17.611Z,101783.22
2022-09-06T01:35:53.106Z,101781.44
2022-09-06T01:38:21.317Z,101775.38
2022-09-06T01:40:49.221Z,101768.41
2022-09-06T01:43:27.101Z,101758.00
2022-09-06T01:46:03.397Z,101771.94
2022-09-06T01:48:52.807Z,101767.56
2022-09-06T01:51:32.403Z,101764.97
2022-09-06T01:54:36.268Z,101765.84
2022-09-06T01:57:23.581Z,101762.38
2022-09-06T02:00:09.715Z,101765.84
2022-09-06T02:02:54.526Z,101768.47
2022-09-06T02:05:33.077Z,101764.09
2022-09-06T02:08:11.803Z,101764.97
2022-09-06T02:10:47.249Z,101759.75
2022-09-06T02:13:18.588Z,101759.78
2022-09-06T02:15:56.577Z,101760.59
2022-09-06T02:18:30.764Z,101745.00
2022-09-06T02:21:02.709Z,101762.38
2022-09-06T02:23:36.649Z,101754.56
2022-09-06T02:26:10.817Z,101758.88
2022-09-06T02:28:38.906Z,101759.72
2022-09-06T02:31:17.558Z,101752.81
2022-09-06T02:33:48.465Z,101758.03
2022-09-06T02:36:16.629Z,101762.34
2022-09-06T02:38:47.044Z,101755.44
2022-09-06T02:41:22.549Z,101751.09
2022-09-06T02:43:50.932Z,101759.78
2022-09-06T02:46:20.240Z,101758.91
2022-09-06T02:48:48.127Z,101761.50
2022-09-06T02:51:16.008Z,101764.09
2022-09-06T02:53:44.380Z,101774.50
2022-09-06T02:56:12.663Z,101771.88
2022-09-06T02:58:40.659Z,101763.19
2022-09-06T03:01:09.104Z,101758.00
2022-09-06T03:03:38.350Z,101757.16
2022-09-06T03:06:06.686Z,101764.06
2022-09-06T03:08:36.420Z,101745.88
2022-09-06T03:11:08.912Z,101755.28
2022-09-06T03:13:39.646Z,101750.06
2022-09-06T03:16:16.394Z,101749.16
2022-09-06T03:18:54.127Z,101753.63
2022-09-06T03:21:28.537Z,101742.34
2022-09-06T03:24:06.263Z,101749.19
2022-09-06T03:26:37.988Z,101747.50
2022-09-06T03:29:09.192Z,101744.00
2022-09-06T03:31:39.690Z,101744.88
2022-09-06T03:34:18.106Z,101752.50
2022-09-06T03:36:48.679Z,101744.13
2022-09-06T03:39:19.182Z,101744.88
2022-09-06T03:41:48.341Z,101734.59
2022-09-06T03:44:25.050Z,101735.47
2022-09-06T03:46:55.970Z,101738.91
2022-09-06T03:49:26.517Z,101733.72
2022-09-06T03:52:04.520Z,101737.19
2022-09-06T03:54:34.828Z,101737.19
2022-09-06T03:57:09.878Z,101741.53
2022-09-06T03:59:41.176Z,101741.50
2022-09-06T04:02:24.412Z,101744.06
2022-09-06T04:05:05.628Z,101742.41
2022-09-06T04:07:35.146Z,101742.31
2022-09-06T04:10:10.462Z,101744.13
2022-09-06T04:12:39.653Z,101738.06
2022-09-06T04:15:10.984Z,101736.34
2022-09-06T04:17:42.264Z,101736.28
2022-09-06T04:20:21.000Z,101740.50
2022-09-06T04:22:50.324Z,101742.34
2022-09-06T04:25:21.221Z,101735.34
2022-09-06T04:27:52.050Z,101736.25
2022-09-06T04:30:19.853Z,101737.16
2022-09-06T04:32:47.690Z,101735.41
2022-09-06T04:35:17.021Z,101729.34
2022-09-06T04:37:44.832Z,101728.38
2022-09-06T04:40:13.430Z,101724.03
2022-09-06T04:42:41.258Z,101728.44
2022-09-06T04:45:10.658Z,101726.66
2022-09-06T04:47:38.746Z,101728.50
2022-09-06T04:50:07.677Z,101730.13
2022-09-06T04:52:36.791Z,101716.38
2022-09-06T04:55:05.974Z,101713.75
2022-09-06T04:57:33.975Z,101705.94
2022-09-06T05:00:04.579Z,101715.38
2022-09-06T05:02:32.422Z,101707.69
2022-09-06T05:05:00.233Z,101714.63
2022-09-06T05:07:28.047Z,101707.66
2022-09-06T05:10:00.068Z,101705.97
2022-09-06T05:12:27.906Z,101706.81
2022-09-06T05:14:55.738Z,101699.03
2022-09-06T05:17:23.554Z,101700.75
2022-09-06T05:19:51.393Z,101699.88
2022-09-06T05:22:19.444Z,101698.97
2022-09-06T05:24:47.353Z,101698.88
2022-09-06T05:27:16.548Z,101705.84
2022-09-06T05:29:44.400Z,101702.50
2022-09-06T05:32:12.221Z,101703.38
2022-09-06T05:34:40.414Z,101701.59
2022-09-06T05:37:08.238Z,101692.91
2022-09-06T05:39:36.117Z,101692.94
2022-09-06T05:42:06.590Z,101696.44
2022-09-06T05:44:36.040Z,101699.88
2022-09-06T05:47:05.025Z,101701.63
2022-09-06T05:49:33.462Z,101709.41
2022-09-06T05:52:01.378Z,101713.72
2022-09-06T05:54:29.245Z,101713.75
2022-09-06T05:56:57.068Z,101710.25
2022-09-06T05:59:24.869Z,101721.56
2022-09-06T06:01:55.179Z,101710.25
2022-09-06T06:04:23.389Z,101710.22
2022-09-06T06:06:51.611Z,101702.31
2022-09-06T06:09:19.463Z,101706.81
2022-09-06T06:11:47.287Z,101702.47
2022-09-06T06:14:15.108Z,101691.19
2022-09-06T06:16:42.962Z,101690.34
2022-09-06T06:19:12.466Z,101686.84
2022-09-06T06:21:40.301Z,101686.88
2022-09-06T06:24:08.793Z,101683.38
2022-09-06T06:26:37.794Z,101688.59
2022-09-06T06:29:09.523Z,101690.31
2022-09-06T06:31:39.754Z,101690.31
2022-09-06T06:34:08.368Z,101686.81
2022-09-06T06:36:38.344Z,101685.03
2022-09-06T06:39:08.881Z,101693.81
2022-09-06T06:41:37.714Z,101676.41
2022-09-06T06:44:07.132Z,101676.13
2022-09-06T06:46:37.637Z,101680.66
2022-09-06T06:49:06.334Z,101681.47
2022-09-06T06:51:37.865Z,101692.44
2022-09-06T06:54:07.065Z,101683.16
2022-09-06T06:56:37.727Z,101687.44
2022-09-06T06:59:08.094Z,101676.44
2022-09-06T07:01:37.419Z,101677.19
2022-09-06T07:04:07.144Z,101676.38
2022-09-06T07:12:27.204Z,101659.44
2022-09-06T07:14:55.581Z,101676.38
2022-09-06T07:17:23.765Z,101684.75
2022-09-06T07:22:41.767Z,101682.03
2022-09-06T07:25:15.312Z,101695.72
2022-09-06T07:30:19.915Z,101687.00
2022-09-06T07:32:48.173Z,101687.50
2022-09-06T07:35:16.248Z,101691.50
2022-09-06T07:37:52.916Z,101692.88
2022-09-06T07:40:20.997Z,101691.06
2022-09-06T07:42:49.102Z,101693.34
2022-09-06T07:45:17.508Z,101688.16
2022-09-06T07:48:00.873Z,101686.13
2022-09-06T07:50:47.706Z,101685.03
2022-09-06T07:53:27.770Z,101683.41
2022-09-06T07:56:00.069Z,101670.97
2022-09-06T07:58:28.636Z,101672.31
2022-09-06T08:01:15.033Z,101663.19
2022-09-06T08:03:43.192Z,101670.69
2022-09-06T08:06:11.232Z,101671.81
2022-09-06T08:11:28.324Z,101676.25
2022-09-06T08:13:57.734Z,101671.00
2022-09-06T08:16:28.751Z,101666.81
2022-09-06T08:18:58.906Z,101660.81
2022-09-06T08:21:29.686Z,101659.56
2022-09-06T08:24:01.378Z,101655.84
2022-09-06T08:26:31.614Z,101661.50
2022-09-06T08:29:01.776Z,101659.63
2022-09-06T08:31:32.420Z,101671.19
2022-09-06T08:34:01.926Z,101668.94
2022-09-06T08:36:31.234Z,101672.19
2022-09-06T08:39:02.308Z,101681.06
2022-09-06T08:41:37.143Z,101673.84
2022-09-06T08:47:01.747Z,101668.47
2022-09-06T08:49:34.849Z,101669.56
2022-09-06T08:52:25.113Z,101668.47
2022-09-06T08:55:13.920Z,101659.81
2022-09-06T08:58:05.877Z,101659.75
2022-09-06T09:00:36.764Z,101646.31
2022-09-06T09:03:17.029Z,101640.19
2022-09-06T09:05:52.914Z,101636.50
2022-09-06T09:08:27.931Z,101631.59
2022-09-06T09:11:04.138Z,101641.44
2022-09-06T09:13:40.212Z,101643.88
2022-09-06T09:16:08.718Z,101642.47
2022-09-06T09:18:41.282Z,101637.00
2022-09-06T09:21:11.193Z,101631.41
2022-09-06T09:23:39.029Z,101638.53
2022-09-06T09:26:15.163Z,101633.41
2022-09-06T09:29:08.914Z,101627.94
2022-09-06T09:31:40.529Z,101625.28
2022-09-06T09:34:13.840Z,101622.94
2022-09-06T09:39:37.227Z,101614.97
2022-09-06T09:42:08.157Z,101623.34
2022-09-06T09:44:43.186Z,101611.84
2022-09-06T09:47:28.413Z,101602.66
2022-09-06T09:49:58.068Z,101603.13
2022-09-06T09:52:29.244Z,101600.44
2022-09-06T09:55:00.982Z,101595.59
2022-09-06T09:57:43.856Z,101591.22
2022-09-06T10:00:13.992Z,101603.31
2022-09-06T10:02:43.490Z,101595.84
2022-09-06T10:05:21.717Z,101589.69
2022-09-06T10:07:53.418Z,101586.59
2022-09-06T10:10:24.702Z,101579.41
2022-09-06T10:13:21.961Z,101571.69
2022-09-06T10:15:52.912Z,101574.66
2022-09-06T10:18:33.015Z,101568.47
2022-09-06T10:21:04.152Z,101571.50
2022-09-06T10:26:52.007Z,101566.22
2022-09-06T10:29:35.932Z,101565.72
2022-09-06T10:32:30.929Z,101560.44
2022-09-06T10:35:15.902Z,101561.75
2022-09-06T10:37:55.469Z,101555.50
2022-09-06T10:40:34.734Z,101558.97
2022-09-06T10:43:05.841Z,101555.34
2022-09-06T10:45:46.676Z,101545.34
2022-09-06T10:48:24.924Z,101550.03
2022-09-06T10:50:58.272Z,101544.19
2022-09-06T10:53:45.203Z,101541.84
2022-09-06T10:56:21.739Z,101536.28
2022-09-06T11:02:09.705Z,101532.56
2022-09-06T11:07:32.671Z,101542.22
2022-09-06T11:10:08.676Z,101534.75
2022-09-06T11:12:45.194Z,101534.13
2022-09-06T11:15:17.073Z,101527.81
2022-09-06T11:17:53.864Z,101530.16
2022-09-06T11:20:32.101Z,101538.59
2022-09-06T11:23:30.703Z,101530.00
2022-09-06T11:26:32.208Z,101524.16
2022-09-06T11:29:03.394Z,101527.69
2022-09-06T11:34:28.709Z,101522.81
2022-09-06T11:36:59.706Z,101511.00
2022-09-06T11:43:03.738Z,101519.41
2022-09-06T11:45:44.704Z,101508.91
2022-09-06T11:49:05.277Z,101504.56
2022-09-06T11:51:38.533Z,101500.53
2022-09-06T11:54:30.001Z,101505.16
2022-09-06T11:57:03.488Z,101498.19
2022-09-06T11:59:55.725Z,101499.72
2022-09-06T12:02:35.023Z,101491.56
2022-09-06T12:05:25.590Z,101490.50
2022-09-06T12:08:31.853Z,101489.69
2022-09-06T12:11:29.024Z,101488.66
2022-09-06T12:14:03.452Z,101492.56
2022-09-06T12:17:27.137Z,101488.84
2022-09-06T12:20:03.685Z,101481.78
2022-09-06T12:23:04.756Z,101487.50
2022-09-06T12:25:59.549Z,101479.00
2022-09-06T12:28:36.164Z,101486.13
2022-09-06T12:31:29.292Z,101478.34
2022-09-06T12:33:59.374Z,101471.06
2022-09-06T12:36:31.361Z,101469.41
2022-09-06T12:39:01.860Z,101464.00
2022-09-06T12:41:42.963Z,101464.59
2022-09-06T12:44:12.330Z,101464.25
2022-09-06T12:46:49.834Z,101463.94
2022-09-06T12:49:22.312Z,101455.41
2022-09-06T12:51:50.872Z,101461.38
2022-09-06T12:54:23.754Z,101455.25
2022-09-06T12:56:54.061Z,101452.38
2022-09-06T12:59:25.036Z,101450.03
2022-09-06T13:02:02.367Z,101439.84
2022-09-06T13:04:41.562Z,101445.25
2022-09-06T13:07:15.789Z,101441.09
2022-09-06T13:09:47.520Z,101434.47
2022-09-06T13:12:26.498Z,101437.13
2022-09-06T13:14:56.592Z,101441.91
2022-09-06T13:17:28.462Z,101439.00
2022-09-06T13:19:58.125Z,101432.84
2022-09-06T13:22:42.809Z,101426.97
2022-09-06T13:25:25.933Z,101414.19
2022-09-06T13:27:58.485Z,101410.84
2022-09-06T13:30:42.003Z,101409.16
2022-09-06T13:33:25.460Z,101413.06
2022-09-06T13:36:09.515Z,101423.53
2022-09-06T13:38:43.114Z,101408.31
2022-09-06T13:41:38.912Z,101410.84
2022-09-06T13:44:21.358Z,101412.38
2022-09-06T13:46:55.178Z,101405.31
2022-09-06T13:49:23.755Z,101413.47
2022-09-06T13:51:53.255Z,101409.59
2022-09-06T13:54:22.627Z,101415.88
2022-09-06T13:56:51.258Z,101410.94
2022-09-06T13:59:21.154Z,101415.53
2022-09-06T14:02:01.015Z,101404.88
2022-09-06T14:04:29.195Z,101405.38
2022-09-06T14:06:57.500Z,101409.63
2022-09-06T14:09:25.409Z,101396.63
2022-09-06T14:11:53.264Z,101396.84
2022-09-06T14:14:22.559Z,101396.84
2022-09-06T14:16:50.375Z,101395.78
2022-09-06T14:19:18.437Z,101388.88
2022-09-06T14:21:46.390Z,101390.47
2022-09-06T14:24:14.509Z,101392.06
2022-09-06T14:26:42.325Z,101391.56
2022-09-06T14:29:10.228Z,101399.69
2022-09-06T14:31:39.896Z,101399.59
2022-09-06T14:34:07.888Z,101395.66
2022-09-06T14:36:35.821Z,101388.97
2022-09-06T14:39:04.786Z,101396.91
2022-09-06T14:41:32.965Z,101393.06
2022-09-06T14:44:01.284Z,101397.47
2022-09-06T14:46:29.996Z,101404.13
2022-09-06T14:49:02.124Z,101400.41
2022-09-06T14:51:31.319Z,101395.38
2022-09-06T14:54:04.740Z,101390.03
2022-09-06T14:56:32.595Z,101376.41
2022-09-06T14:59:00.742Z,101385.22
2022-09-06T15:01:34.358Z,101383.91
2022-09-06T15:04:10.173Z,101376.50
2022-09-06T15:06:40.624Z,101384.16
2022-09-06T15:09:11.232Z,101397.34
2022-09-06T15:11:43.576Z,101391.09
2022-09-06T15:14:16.754Z,101382.97
2022-09-06T15:16:45.631Z,101385.91
2022-09-06T15:19:15.525Z,101372.22
2022-09-06T15:21:44.082Z,101376.53
2022-09-06T15:24:12.525Z,101366.56
2022-09-06T15:26:41.159Z,101368.13
2022-09-06T15:29:09.695Z,101359.75
2022-09-06T15:31:38.391Z,101355.22
2022-09-06T15:34:06.662Z,101363.44
2022-09-06T15:36:36.554Z,101364.00
2022-09-06T15:39:06.928Z,101351.44
2022-09-06T15:41:39.160Z,101352.31
2022-09-06T15:44:10.483Z,101352.31
2022-09-06T15:46:45.399Z,101356.81
2022-09-06T15:49:16.925Z,101355.00
2022-09-06T15:51:46.610Z,101356.50
2022-09-06T15:54:17.429Z,101362.22
2022-09-06T15:56:46.190Z,101355.97
2022-09-06T15:59:14.018Z,101358.66
2022-09-06T16:01:42.062Z,101345.88
2022-09-06T16:04:10.739Z,101338.50
2022-09-06T16:06:42.551Z,101338.47
2022-09-06T16:09:15.036Z,101338.28
2022-09-06T16:11:43.584Z,101324.28
2022-09-06T16:14:15.378Z,101328.09
2022-09-06T16:16:46.120Z,101323.84
2022-09-06T16:19:14.463Z,101328.13
2022-09-06T16:21:44.622Z,101326.47
2022-09-06T16:24:15.505Z,101333.19
2022-09-06T16:26:46.271Z,101350.66
2022-09-06T16:29:18.262Z,101345.91
2022-09-06T16:31:48.821Z,101344.50
2022-09-06T16:34:17.309Z,101333.06
2022-09-06T16:36:45.264Z,101337.66
2022-09-06T16:39:14.647Z,101342.31
2022-09-06T16:41:45.791Z,101331.72
2022-09-06T16:44:17.363Z,101336.91
2022-09-06T16:46:47.426Z,101338.69
2022-09-06T16:49:17.392Z,101329.97
2022-09-06T16:51:46.260Z,101342.22
2022-09-06T16:54:18.323Z,101326.09
2022-09-06T16:56:46.395Z,101328.19
2022-09-06T16:59:17.040Z,101333.06
2022-09-06T17:01:45.626Z,101324.50
2022-09-06T17:04:13.905Z,101321.19
2022-09-06T17:06:44.413Z,101321.53
2022-09-06T17:09:16.022Z,101324.81
2022-09-06T17:11:43.912Z,101326.50
2022-09-06T17:14:12.180Z,101330.31
2022-09-06T17:16:57.930Z,101319.59
2022-09-06T17:19:26.488Z,101323.91
2022-09-06T17:21:54.726Z,101319.16
2022-09-06T17:24:23.940Z,101315.03
2022-09-06T17:26:51.848Z,101319.03
2022-09-06T17:29:20.435Z,101319.03
2022-09-06T17:31:49.494Z,101322.84
2022-09-06T17:34:17.654Z,101320.91
2022-09-06T17:36:45.900Z,101316.13
2022-09-06T17:39:17.691Z,101316.84
2022-09-06T17:41:52.245Z,101312.03
2022-09-06T17:44:22.322Z,101312.78
2022-09-06T17:47:12.000Z,101320.19
2022-09-06T17:49:38.183Z,101322.72
2022-09-06T17:52:06.029Z,101322.38
2022-09-06T17:54:33.895Z,101329.50
2022-09-06T17:57:03.040Z,101332.16
2022-09-06T17:59:35.121Z,101335.56
2022-09-06T18:02:05.432Z,101339.75
2022-09-06T18:04:33.721Z,101340.66
2022-09-06T18:07:01.607Z,101343.81
2022-09-06T18:09:29.652Z,101333.63
2022-09-06T18:11:58.376Z,101335.94
2022-09-06T18:14:28.568Z,101344.50
2022-09-06T18:16:56.729Z,101342.75
2022-09-06T18:19:24.787Z,101344.78
2022-09-06T18:21:52.619Z,101338.16
2022-09-06T18:24:20.424Z,101344.06
2022-09-06T18:26:49.114Z,101352.53
2022-09-06T18:29:18.405Z,101347.56
2022-09-06T18:31:47.660Z,101338.16
2022-09-06T18:34:16.618Z,101340.81
2022-09-06T18:36:44.457Z,101340.16
2022-09-06T18:39:13.170Z,101345.75
2022-09-06T18:41:58.753Z,101350.47
2022-09-06T18:44:30.230Z,101345.84
2022-09-06T18:47:03.181Z,101349.53
2022-09-06T18:49:32.492Z,101349.00
2022-09-06T18:52:01.100Z,101337.84
2022-09-06T18:54:29.588Z,101339.53
2022-09-06T18:56:57.952Z,101337.13
2022-09-06T18:59:25.795Z,101339.28
2022-09-06T19:01:53.736Z,101341.63
2022-09-06T19:04:23.466Z,101345.47
2022-09-06T19:06:51.287Z,101339.06
2022-09-06T19:09:19.301Z,101340.44
2022-09-06T19:11:51.295Z,101343.91
2022-09-06T19:14:19.401Z,101349.25
2022-09-06T19:16:48.681Z,101343.00
2022-09-06T19:19:16.580Z,101342.81
2022-09-06T19:21:46.106Z,101337.69
2022-09-06T19:24:15.558Z,101334.88
2022-09-06T19:26:45.228Z,101342.84
2022-09-06T19:29:17.359Z,101335.09
2022-09-06T19:31:47.030Z,101348.34
2022-09-06T19:34:15.861Z,101339.16
2022-09-06T19:36:46.239Z,101340.78
2022-09-06T19:39:17.086Z,101336.38
2022-09-06T19:41:47.801Z,101333.78
2022-09-06T19:44:20.657Z,101334.91
2022-09-06T19:46:49.301Z,101331.63
2022-09-06T19:49:19.145Z,101318.44
2022-09-06T19:51:50.818Z,101330.28
2022-09-06T19:54:19.622Z,101319.75
2022-09-06T19:56:48.678Z,101312.41
2022-09-06T19:59:17.696Z,101314.75
2022-09-06T20:01:49.869Z,101317.63
2022-09-06T20:04:17.982Z,101321.38
2022-09-06T20:06:46.031Z,101327.69
2022-09-06T20:09:16.450Z,101328.34
2022-09-06T20:11:45.048Z,101324.69
2022-09-06T20:14:13.404Z,101328.03
2022-09-06T20:16:42.907Z,101324.75
2022-09-06T20:19:14.547Z,101325.72
2022-09-06T20:21:43.192Z,101320.06
2022-09-06T20:24:11.125Z,101318.78
2022-09-06T20:26:40.412Z,101308.84
2022-09-06T20:29:08.981Z,101314.91
2022-09-06T20:31:38.538Z,101311.47
2022-09-06T20:34:08.229Z,101312.44
2022-09-06T20:36:36.723Z,101311.25
2022-09-06T20:39:05.200Z,101308.56
2022-09-06T20:41:33.753Z,101290.94
2022-09-06T20:44:06.378Z,101301.09
2022-09-06T20:46:36.010Z,101295.88
2022-09-06T20:49:05.105Z,101299.09
2022-09-06T20:51:35.551Z,101294.78
2022-09-06T20:54:06.237Z,101297.59
2022-09-06T20:56:37.317Z,101298.84
2022-09-06T20:59:08.835Z,101291.13
2022-09-06T21:01:40.600Z,101282.81
2022-09-06T21:04:10.546Z,101282.97
2022-09-06T21:06:40.010Z,101279.50
2022-09-06T21:09:11.713Z,101286.00
2022-09-06T21:11:43.228Z,101275.06
2022-09-06T21:14:13.813Z,101276.66
2022-09-06T21:16:44.249Z,101284.31
2022-09-06T21:19:12.995Z,101279.97
2022-09-06T21:21:41.670Z,101267.09
2022-09-06T21:24:11.611Z,101271.47
2022-09-06T21:26:40.878Z,101273.19
2022-09-06T21:29:11.478Z,101274.22
2022-09-06T21:31:42.410Z,101272.69
2022-09-06T21:34:16.808Z,101264.28
2022-09-06T21:36:45.622Z,101258.00
2022-09-06T21:39:13.953Z,101262.88
2022-09-06T21:41:44.306Z,101254.44
2022-09-06T21:44:13.027Z,101256.53
2022-09-06T21:46:42.978Z,101257.47
2022-09-06T21:49:13.817Z,101254.94
2022-09-06T21:51:42.423Z,101251.44
2022-09-06T21:54:10.455Z,101249.84
2022-09-06T21:56:40.059Z,101245.00
2022-09-06T21:59:09.160Z,101244.25
2022-09-06T22:01:39.490Z,101251.84
2022-09-06T22:04:11.413Z,101236.31
2022-09-06T22:06:40.549Z,101240.66
2022-09-06T22:09:12.130Z,101242.13
2022-09-06T22:11:43.006Z,101248.53
2022-09-06T22:14:14.583Z,101232.53
2022-09-06T22:16:42.982Z,101232.31
2022-09-06T22:19:12.782Z,101230.03
2022-09-06T22:21:41.237Z,101225.16
2022-09-06T22:24:12.590Z,101223.84
2022-09-06T22:26:42.042Z,101220.94
2022-09-06T22:29:13.446Z,101228.25
2022-09-06T22:31:41.439Z,101227.50
2022-09-06T22:34:10.333Z,101215.75
2022-09-06T22:36:40.020Z,101219.41
2022-09-06T22:39:07.850Z,101221.41
2022-09-06T22:41:35.777Z,101214.16
2022-09-06T22:44:05.217Z,101219.56
2022-09-06T22:46:34.046Z,101207.38
2022-09-06T22:49:02.481Z,101213.63
2022-09-06T22:51:30.328Z,101203.91
2022-09-06T22:53:59.462Z,101212.47
2022-09-06T22:56:27.290Z,101214.06
2022-09-06T22:58:55.141Z,101210.50
2022-09-06T23:01:23.015Z,101201.41
2022-09-06T23:03:51.602Z,101204.75
2022-09-06T23:06:19.520Z,101199.63
2022-09-06T23:08:47.438Z,101201.97
2022-09-06T23:11:19.618Z,101192.50
2022-09-06T23:13:47.624Z,101201.59
2022-09-06T23:16:19.409Z,101197.38
2022-09-06T23:18:49.204Z,101193.34
2022-09-06T23:21:19.386Z,101196.16
2022-09-06T23:23:49.889Z,101195.38
2022-09-06T23:26:21.702Z,101202.25
2022-09-06T23:28:56.301Z,101205.09
2022-09-06T23:31:26.782Z,101188.81
2022-09-06T23:33:56.887Z,101192.56
2022-09-06T23:36:25.555Z,101201.06
2022-09-06T23:38:53.657Z,101209.59
2022-09-06T23:41:22.923Z,101206.53
2022-09-06T23:43:51.040Z,101202.66
2022-09-06T23:46:19.341Z,101193.66
2022-09-06T23:48:47.443Z,101203.41
2022-09-06T23:51:15.532Z,101200.94
2022-09-06T23:53:43.397Z,101201.75
2022-09-06T23:56:11.590Z,101196.94
2022-09-06T23:58:41.106Z,101188.84
